Witts, Indiana
Current Conditions -  °F | °C
As of 1:15 PM on Sunday 25 Jan 2015 (Local Time) from KI67 Reporting Station
Overcast Overcast  
Wind Chill: 39°   Ceiling: 6000
Heat Index: 39°   Visibility: 10mi
Dew Point: 34°   Wind: 3mph
Humidity: 81%   Direction: 130°SE
Pressure: 29.69"   Gusts: NA
Location:  39.6086°N, 84.9137°W
Report Text: KI67 251815Z AUTO 13003KT 10SM SCT050 OVC060 04/01 A2969 RMK AO1
Loading
Personal Weather Stations






























Interactive Weather Map New forecast layout! Learn more

10-Day Weather Forecast

Advertisements
Track Severe Weather on mobile